Nearby METAR Reports

 

KBGR - Bangor, Maine, USA
Distance from station: E 5mi, 8km
Updated: Wed, 17-Jan-2018 3:53pm EST
Light snow, Mist, Overcast
Light snow, Mist, Overcast
 Wind from N
Wind: N 7 mph , 11 km/h
Temperature: 25°F , -4°C
Wind Chill: 17°F , -8°C
Dew Point: 21°F , -6°C
Humidity: 86%
Barometer: 30.16 inHg , 1021.3 hPa
Summary: Light snow, Mist
Clouds: Overcast
Visibility: 1/2 mile , 0.8 km
Cloud details: Overcast 2000 ft
2018/01/17 20:53 KBGR 172053Z 36006KT 1/2SM R15/5000VP6000FT -SN BR VV020 M04/M06 A3016 RMK AO2 SFC VIS 3/4 SLP218 SNINCR 1/004 P0002 60007 T10391056 56029
KBHB - Bar Harbor, Maine, USA
Distance from station: SE 37mi, 59km
Updated: Wed, 17-Jan-2018 4:10pm EST
Light snow, Mist, Overcast
Light snow, Mist, Overcast
 Wind from N
Wind: N 7 mph , 11 km/h
Temperature: 27°F , -3°C
Wind Chill: 19°F , -7°C
Dew Point: 27°F , -3°C
Humidity: 100%
Barometer: 30.14 inHg , 1020.7 hPa
Summary: Light snow, Mist
Clouds: Overcast
Visibility: 3/4 mile , 1.2 km
Cloud details: Partly cloudy 1200 ft
Overcast 1700 ft
2018/01/17 21:10 KBHB 172110Z AUTO 36006KT 3/4SM -SN BR SCT012 OVC017 M03/M03 A3014 RMK AO2 FZRANO RVRNO PNO $
 
KWVL - Waterville, Maine, USA
Distance from station: WSW 42mi, 68km
Updated: Wed, 17-Jan-2018 4:18pm EST
Light snow, Mist, Overcast
Light snow, Mist, Overcast
 Wind from NNE
Wind: NNE 7 mph , 11 km/h
Temperature: 25°F , -4°C
Wind Chill: 17°F , -8°C
Dew Point: 21°F , -6°C
Humidity: 86%
Barometer: 30.10 inHg , 1019.3 hPa
Summary: Light snow, Mist
Clouds: Overcast
Visibility: 5 miles , 8 km
Cloud details: Few Clouds 1900 ft
Partly cloudy 2700 ft
Overcast 7000 ft
2018/01/17 21:18 KWVL 172118Z AUTO 02006KT 5SM -SN BR FEW019 SCT027 OVC070 M04/M06 A3010 RMK AO2 P0000 FZRANO
KRKD - Rockland/Knox, Maine, USA
Distance from station: S 52mi, 84km
Updated: Sat, 13-Jan-2018 3:56am EST
NOT Current
Light rain, Mist, Overcast
Light rain, Mist, Overcast
 Wind from SSW
Wind: SSW 18 mph , 30 km/h, Gust: 26 mph , 43 km/h
Temperature: 52°F , 11°C
Dew Point: 52°F , 11°C
Humidity: 100%
Barometer: 29.52 inHg , 999.7 hPa
Summary: Light rain, Mist
Clouds: Overcast
Visibility: 4 miles , 6 km
Cloud details: Overcast 200 ft
2018/01/13 08:56 KRKD 130856Z AUTO 20016G23KT 4SM -RA BR OVC002 11/11 A2952 RMK AO2 SLP997 P0015 60037 T01110106 56021
 
KAUG - Augusta, Maine, USA
Distance from station: SW 55mi, 89km
Updated: Wed, 17-Jan-2018 4:24pm EST
Light snow, Mist, Overcast
Light snow, Mist, Overcast
 Wind from N
Wind: N 9 mph , 15 km/h
Temperature: 25°F , -4°C
Wind Chill: 16°F , -9°C
Dew Point: 21°F , -6°C
Humidity: 86%
Barometer: 30.13 inHg , 1020.3 hPa
Summary: Light snow, Mist
Clouds: Overcast
Visibility: 1 3/4 miles , 2.8 km
Cloud details: Mostly cloudy 2200 ft
Mostly cloudy 3000 ft
Overcast 4800 ft
2018/01/17 21:24 KAUG 172124Z AUTO 01008KT 1 3/4SM -SN BR BKN022 BKN030 OVC048 M04/M06 A3013 RMK AO2 P0000 T10391056
KGNR - Greenville, Maine, USA
Distance from station: NW 55mi, 89km
Updated: Wed, 17-Jan-2018 3:56pm EST

 Wind from calm
Wind: Calm
Temperature: 21°F , -6°C
Dew Point: 19°F , -7°C
Humidity: 93%
Barometer: 30.06 inHg , 1017.9 hPa
2018/01/17 20:56 KGNR 172056Z AUTO 00000KT M06/M07 A3006 RMK AO1 SLP206 T10561067 56023
 
KMLT - Millinocket, Maine, USA
Distance from station: N 59mi, 95km
Updated: Wed, 17-Jan-2018 4:17pm EST
Light snow, Mist, Overcast
Light snow, Mist, Overcast
 Wind from calm
Wind: Calm
Temperature: 23°F , -5°C
Dew Point: 21°F , -6°C
Humidity: 93%
Barometer: 30.17 inHg , 1021.7 hPa
Summary: Light snow, Mist
Clouds: Overcast
Visibility: 1 mile , 2 km
Cloud details: Overcast 3600 ft
2018/01/17 21:17 KMLT 172117Z AUTO 00000KT 1SM -SN BR OVC036 M05/M06 A3017 RMK AO2 P0000 T10501061
KIWI - Wiscasset, Maine, USA
Distance from station: SW 70mi, 113km
Updated: Wed, 17-Jan-2018 4:11pm EST
Light snow, Mist, Overcast
Light snow, Mist, Overcast
 Wind from varies
Wind: varies 3 mph , 6 km/h
Temperature: 28°F , -2°C
Dew Point: 27°F , -3°C
Humidity: 93%
Barometer: 30.14 inHg , 1020.7 hPa
Summary: Light snow, Mist
Clouds: Overcast
Visibility: 2 miles , 3 km
Cloud details: Few Clouds 1600 ft
Mostly cloudy 3100 ft
Overcast 4700 ft
2018/01/17 21:11 KIWI 172111Z AUTO VRB03KT 2SM -SN BR FEW016 BKN031 OVC047 M02/M03 A3014 RMK AO2 P0001 T10221028
 
CWSS - St. Stephen (mar, New Brunswick, Canada
Distance from station: ENE 86mi, 138km
Updated: Wed, 17-Jan-2018 4:00pm EST

 Wind from N
Wind: N 2 mph , 4 km/h
Temperature: 28°F , -2°C
Dew Point: 25°F , -4°C
Humidity: 86%
2018/01/17 21:00 CWSS 172100Z AUTO 35002KT M02/M04 RMK AO1 0PAST HR SOG 04 6027 SLP217 P0004 T10151035 50033
KLEW - Auburn/Lewiston, Maine, USA
Distance from station: SW 86mi, 138km
Updated: Wed, 17-Jan-2018 5:56am EST
NOT Current
Light snow, Mist, Overcast
Light snow, Mist, Overcast
 Wind from N
Wind: N 5 mph , 7 km/h
Temperature: 21°F , -6°C
Wind Chill: 14°F , -10°C
Dew Point: 19°F , -7°C
Humidity: 93%
Barometer: 30.37 inHg , 1028.4 hPa
Summary: Light snow, Mist
Clouds: Overcast
Visibility: 2 miles , 3 km
Cloud details: Overcast 2100 ft
2018/01/17 10:56 KLEW 171056Z AUTO 01004KT 2SM -SN BR OVC021 M06/M07 A3037 RMK AO2 VIS 1 3/4V3 SLP302 P0000 T10611067 FZRANO
 
KHUL - Houlton, Maine, USA
Distance from station: NNE 105mi, 169km
Updated: Wed, 17-Jan-2018 4:16pm EST
Light snow, Mist, Overcast
Light snow, Mist, Overcast
 Wind from calm
Wind: Calm
Temperature: 25°F , -4°C
Dew Point: 21°F , -6°C
Humidity: 86%
Barometer: 30.14 inHg , 1020.7 hPa
Summary: Light snow, Mist
Clouds: Overcast
Visibility: 1 3/4 miles , 2.8 km
Cloud details: Overcast 4000 ft
2018/01/17 21:16 KHUL 172116Z AUTO 00000KT 1 3/4SM -SN BR OVC040 M04/M06 A3014 RMK AO2 SNB05 P0000 T10441056
KPWM - Portland, Maine, USA
Distance from station: SW 105mi, 170km
Updated: Wed, 17-Jan-2018 3:51pm EST
Light snow, Mist, Overcast
Light snow, Mist, Overcast
 Wind from NE
Wind: NE 9 mph , 15 km/h
Temperature: 28°F , -2°C
Wind Chill: 19°F , -7°C
Dew Point: 27°F , -3°C
Humidity: 93%
Barometer: 30.14 inHg , 1020.7 hPa
Summary: Light snow, Mist
Clouds: Overcast
Visibility: 3 miles , 5 km
Cloud details: Few Clouds 900 ft
Overcast 1600 ft
2018/01/17 20:51 KPWM 172051Z 05008KT 3SM -SN BR FEW009 OVC016 M02/M03 A3014 RMK AO2 SLP206 P0000 60003 T10221033 56025
 
KBML - Berlin, New Hampshire, USA
Distance from station: W 113mi, 181km
Updated: Wed, 17-Jan-2018 4:14pm EST
Light snow, Mist, Overcast
Light snow, Mist, Overcast
 Wind from calm
Wind: Calm
Temperature: 27°F , -3°C
Dew Point: 21°F , -6°C
Humidity: 80%
Barometer: 30.08 inHg , 1018.6 hPa
Summary: Light snow, Mist
Clouds: Overcast
Visibility: 2 1/2 miles , 4 km
Cloud details: Mostly cloudy 4500 ft
Overcast 5500 ft
2018/01/17 21:14 KBML 172114Z AUTO 00000KT 2 1/2SM -SN BR BKN045 OVC055 M03/M06 A3008 RMK AO2 P0000 T10331056
KIZG - Fryeburg, Maine, USA
Distance from station: WSW 116mi, 186km
Updated: Wed, 17-Jan-2018 3:54pm EST
Light snow, Mist, Overcast
Light snow, Mist, Overcast
 Wind from calm
Wind: Calm
Temperature: 27°F , -3°C
Dew Point: 27°F , -3°C
Humidity: 100%
Barometer: 30.13 inHg , 1020.3 hPa
Summary: Light snow, Mist
Clouds: Overcast
Visibility: 2 miles , 3 km
Cloud details: Overcast 4100 ft
2018/01/17 20:54 KIZG 172054Z AUTO 00000KT 2SM -SN BR OVC041 M03/M03 A3013 RMK AO2 SLP211 P0000 60000 T10281033 58006
 
CWPE - Point Lepreau, New Brunswick, Canada
Distance from station: E 121mi, 195km
Updated: Wed, 17-Jan-2018 4:00pm EST

 Wind from E
Wind: E 9 mph , 15 km/h, Gust: 18 mph , 30 km/h
Temperature: 32°F , 0°C
Wind Chill: 24°F , -4°C
Dew Point: 32°F , 0°C
Humidity: 100%
2018/01/17 21:00 CWPE 172100Z AUTO 09008G16KT M00/M00 RMK AO1 SOG 08 8031 SLP214 T10011003
KMWN - Mount Washington, New Hampshire, USA
Distance from station: WSW 123mi, 198km
Updated: Wed, 17-Jan-2018 3:48pm EST
Light snow, Freezing, Fog, Overcast
Light snow, Freezing, Fog, Overcast
 Wind from SW
Wind: SW 20 mph , 31 km/h
Temperature: 12°F , -11°C
Wind Chill: -6°F , -21°C
Dew Point: 12°F , -11°C
Humidity: 100%
Summary: Light snow, Freezing, Fog
Clouds: Overcast
Visibility: 1/8 mile , 0.2 km
Cloud details: Overcast 400 ft
2018/01/17 20:48 KMWN 172048Z 23017KT 1/8SM -SN FZFG VV004 M11/M11 RMK VRY LGT ICG
 
KPQI - Presque Isle, Maine, USA
Distance from station: ESE 136mi, 219km
Updated: Wed, 17-Jan-2018 3:56pm EST
Few Clouds
Few Clouds
 Wind from SSE
Wind: SSE 3 mph , 6 km/h
Temperature: 19°F , -7°C
Dew Point: 16°F , -9°C
Humidity: 86%
Barometer: 30.15 inHg , 1021 hPa
Clouds: Few Clouds
Visibility: 10 miles , 16 km
Cloud details: Few Clouds 4400 ft
2018/01/17 20:56 KPQI 172056Z AUTO 15003KT 10SM FEW044 M07/M09 A3015 RMK AO2 SLP256 T10721094 58021 FZRANO
KCAR - Caribou, Maine, USA
Distance from station: NNE 148mi, 238km
Updated: Wed, 17-Jan-2018 3:54pm EST
Clear
Clear
 Wind from SE
Wind: SE 6 mph , 9 km/h
Temperature: 19°F , -7°C
Wind Chill: 11°F , -12°C
Dew Point: 14°F , -10°C
Humidity: 79%
Barometer: 30.12 inHg , 1020 hPa
Clouds: Clear
Visibility: 10 miles , 16 km
2018/01/17 20:54 KCAR 172054Z AUTO 13005KT 10SM CLR M07/M10 A3012 RMK AO2 SLP216 T10671100 58024